createdAt,value
2022-08-26T00:02:16.168Z,24.08
2022-08-26T00:06:35.548Z,23.97
2022-08-26T00:10:52.822Z,24.04
2022-08-26T00:15:11.307Z,24.14
2022-08-26T00:19:27.781Z,24.08
2022-08-26T00:23:44.603Z,23.72
2022-08-26T00:28:01.264Z,23.71
2022-08-26T00:32:17.308Z,23.66
2022-08-26T00:36:33.764Z,23.63
2022-08-26T00:40:52.545Z,23.71
2022-08-26T00:45:11.563Z,23.53
2022-08-26T00:49:45.071Z,23.46
2022-08-26T00:54:05.688Z,23.70
2022-08-26T00:58:25.026Z,23.59
2022-08-26T01:02:46.794Z,23.59
2022-08-26T01:07:05.056Z,23.48
2022-08-26T01:11:21.632Z,23.49
2022-08-26T01:15:43.914Z,23.51
2022-08-26T01:20:45.762Z,23.50
2022-08-26T01:25:03.447Z,23.44
2022-08-26T01:29:20.289Z,23.42
2022-08-26T01:34:14.003Z,23.66
2022-08-26T01:38:30.850Z,23.55
2022-08-26T01:42:49.357Z,23.49
2022-08-26T01:47:06.776Z,23.46
2022-08-26T01:51:25.349Z,23.44
2022-08-26T01:55:44.672Z,23.42
2022-08-26T02:00:02.490Z,23.34
2022-08-26T02:04:28.827Z,23.40
2022-08-26T02:08:48.115Z,23.31
2022-08-26T02:13:09.103Z,23.36
2022-08-26T02:17:35.158Z,23.36
2022-08-26T02:21:52.228Z,23.24
2022-08-26T02:26:12.557Z,23.20
2022-08-26T02:30:34.257Z,23.15
2022-08-26T02:34:50.492Z,23.17
2022-08-26T02:39:07.394Z,23.09
2022-08-26T02:43:31.396Z,23.05
2022-08-26T02:47:49.871Z,23.09
2022-08-26T02:52:06.473Z,23.00
2022-08-26T02:56:22.811Z,22.99
2022-08-26T03:00:39.744Z,23.17
2022-08-26T03:05:11.428Z,23.06
2022-08-26T03:09:28.091Z,23.24
2022-08-26T03:13:44.431Z,23.06
2022-08-26T03:18:00.412Z,23.02
2022-08-26T03:22:16.997Z,22.95
2022-08-26T03:26:33.019Z,23.03
2022-08-26T03:30:49.317Z,23.13
2022-08-26T03:35:06.279Z,23.40
2022-08-26T03:39:22.575Z,23.24
2022-08-26T03:43:39.163Z,23.15
2022-08-26T03:47:57.824Z,22.98
2022-08-26T03:52:14.389Z,23.07
2022-08-26T03:56:33.474Z,22.97
2022-08-26T04:00:55.559Z,22.91
2022-08-26T04:05:13.710Z,22.95
2022-08-26T04:09:29.690Z,23.21
2022-08-26T04:13:46.194Z,22.99
2022-08-26T04:18:03.605Z,22.91
2022-08-26T04:22:24.840Z,23.06
2022-08-26T04:26:42.548Z,23.07
2022-08-26T04:30:59.097Z,23.22
2022-08-26T04:35:15.130Z,23.44
2022-08-26T04:39:31.607Z,23.42
2022-08-26T04:43:48.986Z,23.38
2022-08-26T04:48:05.132Z,23.50
2022-08-26T04:52:21.311Z,23.45
2022-08-26T04:56:41.575Z,23.60
2022-08-26T05:00:59.119Z,23.77
2022-08-26T05:05:15.625Z,23.84
2022-08-26T05:09:34.316Z,24.05
2022-08-26T05:13:50.426Z,24.16
2022-08-26T05:18:07.673Z,24.58
2022-08-26T05:22:23.800Z,24.66
2022-08-26T05:26:41.449Z,24.26
2022-08-26T05:30:57.922Z,24.45
2022-08-26T05:35:13.978Z,24.57
2022-08-26T05:39:33.443Z,24.48
2022-08-26T05:43:50.777Z,24.60
2022-08-26T05:48:08.409Z,24.65
2022-08-26T05:52:26.146Z,24.64
2022-08-26T05:56:42.405Z,24.59
2022-08-26T06:01:10.852Z,24.38
2022-08-26T06:05:27.600Z,24.72
2022-08-26T06:09:44.376Z,24.72
2022-08-26T06:14:06.916Z,24.59
2022-08-26T06:18:27.487Z,24.93
2022-08-26T06:23:03.508Z,24.69
2022-08-26T06:27:20.379Z,24.79
2022-08-26T06:31:37.019Z,24.89
2022-08-26T06:35:56.155Z,25.26
2022-08-26T06:40:14.909Z,24.97
2022-08-26T06:44:32.376Z,25.37
2022-08-26T06:48:48.986Z,25.66
2022-08-26T06:53:05.107Z,25.91
2022-08-26T06:57:21.306Z,25.96
2022-08-26T07:01:46.054Z,25.79
2022-08-26T07:06:03.481Z,25.61
2022-08-26T07:10:19.907Z,25.81
2022-08-26T07:14:36.449Z,25.97
2022-08-26T07:18:53.790Z,26.39
2022-08-26T07:23:11.864Z,26.66
2022-08-26T07:27:27.958Z,26.60
2022-08-26T07:31:45.323Z,27.00
2022-08-26T07:36:04.192Z,27.23
2022-08-26T07:40:20.572Z,27.50
2022-08-26T07:44:37.884Z,27.87
2022-08-26T07:48:54.042Z,27.83
2022-08-26T07:53:10.710Z,28.41
2022-08-26T07:57:28.509Z,28.48
2022-08-26T08:01:45.576Z,28.50
2022-08-26T08:06:01.703Z,28.98
2022-08-26T08:10:22.667Z,29.55
2022-08-26T08:14:42.271Z,29.54
2022-08-26T08:18:59.729Z,29.88
2022-08-26T08:23:16.834Z,30.01
2022-08-26T08:27:37.449Z,30.52
2022-08-26T08:31:56.704Z,30.85
2022-08-26T08:36:18.416Z,31.12
2022-08-26T08:40:39.458Z,31.27
2022-08-26T08:45:02.933Z,31.59
2022-08-26T08:49:20.160Z,31.57
2022-08-26T08:53:43.189Z,31.77
2022-08-26T08:58:13.860Z,32.02
2022-08-26T09:02:37.065Z,32.08
2022-08-26T09:11:11.981Z,32.68
2022-08-26T09:15:59.807Z,32.81
2022-08-26T09:20:41.826Z,32.93
2022-08-26T09:25:02.572Z,32.85
2022-08-26T09:29:27.220Z,33.15
2022-08-26T09:33:43.453Z,33.15
2022-08-26T09:37:59.984Z,33.42
2022-08-26T09:42:23.373Z,33.58
2022-08-26T09:47:04.319Z,33.76
2022-08-26T09:51:32.027Z,33.89
2022-08-26T09:55:51.366Z,34.22
2022-08-26T10:00:30.353Z,34.41
2022-08-26T10:04:55.316Z,34.86
2022-08-26T10:09:18.027Z,34.79
2022-08-26T10:13:37.698Z,34.66
2022-08-26T10:18:17.576Z,34.32
2022-08-26T10:22:39.206Z,34.48
2022-08-26T10:27:05.996Z,34.30
2022-08-26T10:32:21.350Z,34.63
2022-08-26T10:41:32.342Z,34.93
2022-08-26T10:45:52.095Z,34.77
2022-08-26T10:50:08.387Z,35.29
2022-08-26T10:54:31.282Z,35.59
2022-08-26T10:59:12.247Z,35.72
2022-08-26T11:03:45.607Z,35.77
2022-08-26T11:08:30.911Z,35.31
2022-08-26T11:12:49.227Z,35.99
2022-08-26T11:17:08.951Z,36.63
2022-08-26T11:22:01.216Z,36.88
2022-08-26T11:26:37.633Z,37.73
2022-08-26T11:30:57.987Z,37.10
2022-08-26T11:35:20.678Z,36.66
2022-08-26T11:39:53.860Z,37.24
2022-08-26T11:44:11.563Z,37.48
2022-08-26T11:48:30.844Z,37.46
2022-08-26T11:53:19.232Z,37.87
2022-08-26T11:57:45.526Z,38.09
2022-08-26T12:02:01.750Z,38.77
2022-08-26T12:06:31.373Z,39.16
2022-08-26T12:10:49.118Z,39.55
2022-08-26T12:15:12.325Z,39.82
2022-08-26T12:19:33.005Z,40.06
2022-08-26T12:23:52.009Z,40.05
2022-08-26T12:28:09.280Z,40.26
2022-08-26T12:32:25.406Z,40.47
2022-08-26T12:36:53.039Z,40.31
2022-08-26T12:41:09.082Z,39.36
2022-08-26T12:45:37.743Z,39.92
2022-08-26T12:50:06.022Z,40.00
2022-08-26T12:54:41.937Z,39.90
2022-08-26T12:59:23.232Z,40.25
2022-08-26T13:03:43.785Z,40.04
2022-08-26T13:08:10.185Z,39.34
2022-08-26T13:12:34.490Z,38.82
2022-08-26T13:16:50.956Z,39.21
2022-08-26T13:21:21.975Z,39.66
2022-08-26T13:25:38.042Z,39.61
2022-08-26T13:29:55.053Z,40.06
2022-08-26T13:34:14.305Z,40.15
2022-08-26T13:38:33.246Z,40.08
2022-08-26T13:42:50.199Z,40.01
2022-08-26T13:47:07.023Z,39.40
2022-08-26T13:51:23.425Z,39.00
2022-08-26T13:55:39.391Z,39.30
2022-08-26T13:59:57.203Z,39.21
2022-08-26T14:04:13.295Z,39.47
2022-08-26T14:08:29.418Z,39.43
2022-08-26T14:12:45.875Z,40.34
2022-08-26T14:17:02.222Z,40.23
2022-08-26T14:21:18.489Z,40.65
2022-08-26T14:25:34.440Z,40.92
2022-08-26T14:29:50.410Z,41.19
2022-08-26T14:34:08.069Z,41.17
2022-08-26T14:38:24.024Z,41.32
2022-08-26T14:42:41.512Z,41.16
2022-08-26T14:46:59.480Z,40.55
2022-08-26T14:51:15.776Z,40.15
2022-08-26T14:55:33.608Z,40.06
2022-08-26T14:59:50.609Z,39.68
2022-08-26T15:04:06.842Z,39.71
2022-08-26T15:08:22.810Z,39.82
2022-08-26T15:12:40.367Z,39.48
2022-08-26T15:16:57.340Z,39.50
2022-08-26T15:21:15.122Z,39.28
2022-08-26T15:25:32.343Z,39.05
2022-08-26T15:29:48.330Z,38.54
2022-08-26T15:34:13.308Z,38.06
2022-08-26T15:38:33.910Z,38.03
2022-08-26T15:42:57.520Z,37.85
2022-08-26T15:47:17.382Z,37.55
2022-08-26T15:51:45.727Z,37.29
2022-08-26T15:56:02.884Z,37.13
2022-08-26T16:00:20.066Z,37.03
2022-08-26T16:04:36.135Z,36.74
2022-08-26T16:08:52.156Z,36.37
2022-08-26T16:13:10.392Z,36.35
2022-08-26T16:17:29.926Z,36.45
2022-08-26T16:21:46.576Z,36.27
2022-08-26T16:26:13.441Z,36.08
2022-08-26T16:30:29.523Z,35.94
2022-08-26T16:34:56.263Z,35.70
2022-08-26T16:39:13.073Z,35.60
2022-08-26T16:43:29.289Z,35.34
2022-08-26T16:47:45.387Z,35.26
2022-08-26T16:52:01.388Z,35.04
2022-08-26T16:56:19.911Z,34.69
2022-08-26T17:00:36.383Z,34.63
2022-08-26T17:04:52.783Z,34.43
2022-08-26T17:09:09.771Z,33.97
2022-08-26T17:13:35.094Z,33.81
2022-08-26T17:17:55.230Z,33.45
2022-08-26T17:22:11.936Z,33.24
2022-08-26T17:26:29.200Z,32.78
2022-08-26T17:30:45.484Z,32.74
2022-08-26T17:35:02.052Z,32.31
2022-08-26T17:39:18.371Z,32.00
2022-08-26T17:43:34.471Z,31.83
2022-08-26T17:47:50.473Z,31.40
2022-08-26T17:52:10.959Z,31.02
2022-08-26T17:56:29.381Z,30.96
2022-08-26T18:00:50.721Z,30.70
2022-08-26T18:05:08.427Z,30.21
2022-08-26T18:09:24.456Z,30.29
2022-08-26T18:13:47.350Z,30.07
2022-08-26T18:18:03.863Z,29.94
2022-08-26T18:22:19.838Z,29.94
2022-08-26T18:26:37.985Z,29.61
2022-08-26T18:30:54.159Z,29.51
2022-08-26T18:35:13.620Z,29.38
2022-08-26T18:39:29.656Z,29.22
2022-08-26T18:43:46.306Z,29.06
2022-08-26T18:48:03.007Z,28.90
2022-08-26T18:52:25.634Z,28.86
2022-08-26T18:56:42.509Z,28.55
2022-08-26T19:00:58.780Z,28.31
2022-08-26T19:05:14.873Z,28.27
2022-08-26T19:09:31.862Z,28.07
2022-08-26T19:13:49.150Z,28.12
2022-08-26T19:18:07.911Z,27.79
2022-08-26T19:22:26.927Z,27.79
2022-08-26T19:26:45.597Z,27.83
2022-08-26T19:31:01.700Z,27.66
2022-08-26T19:35:17.842Z,27.66
2022-08-26T19:39:37.022Z,27.41
2022-08-26T19:43:53.032Z,27.45
2022-08-26T19:48:14.779Z,27.03
2022-08-26T19:52:30.745Z,27.03
2022-08-26T19:56:49.657Z,27.19
2022-08-26T20:01:06.751Z,26.98
2022-08-26T20:05:24.600Z,27.00
2022-08-26T20:09:40.600Z,26.95
2022-08-26T20:13:57.239Z,26.64
2022-08-26T20:18:32.151Z,26.67
2022-08-26T20:22:48.302Z,26.51
2022-08-26T20:27:07.689Z,26.30
2022-08-26T20:31:25.555Z,26.36
2022-08-26T20:35:41.527Z,26.26
2022-08-26T20:39:57.515Z,26.23
2022-08-26T20:44:14.023Z,26.14
2022-08-26T20:48:30.843Z,26.13
2022-08-26T20:52:47.555Z,26.04
2022-08-26T20:57:03.668Z,25.99
2022-08-26T21:01:22.858Z,25.98
2022-08-26T21:05:38.847Z,25.90
2022-08-26T21:09:54.809Z,25.91
2022-08-26T21:14:16.783Z,25.79
2022-08-26T21:18:33.612Z,25.70
2022-08-26T21:22:50.207Z,25.70
2022-08-26T21:27:06.230Z,25.60
2022-08-26T21:31:24.172Z,25.50
2022-08-26T21:35:41.043Z,25.67
2022-08-26T21:39:58.678Z,25.57
2022-08-26T21:44:16.570Z,25.66
2022-08-26T21:48:34.735Z,25.59
2022-08-26T21:52:50.755Z,25.55
2022-08-26T21:57:07.004Z,25.39
2022-08-26T22:01:24.572Z,25.39
2022-08-26T22:05:50.598Z,25.50
2022-08-26T22:10:07.151Z,25.41
2022-08-26T22:14:30.430Z,25.20
2022-08-26T22:18:47.121Z,25.16
2022-08-26T22:23:03.266Z,25.12
2022-08-26T22:27:19.286Z,25.07
2022-08-26T22:31:37.660Z,24.98
2022-08-26T22:35:55.796Z,25.00
2022-08-26T22:40:13.083Z,25.28
2022-08-26T22:44:29.229Z,24.90
2022-08-26T22:48:45.389Z,24.97
2022-08-26T22:53:06.345Z,24.88
2022-08-26T22:57:22.817Z,24.85
2022-08-26T23:01:41.420Z,24.45
2022-08-26T23:05:57.644Z,24.54
2022-08-26T23:10:13.606Z,24.71
2022-08-26T23:14:31.606Z,24.61
2022-08-26T23:18:47.675Z,24.67
2022-08-26T23:23:04.020Z,24.75
2022-08-26T23:27:20.046Z,24.71
2022-08-26T23:31:38.050Z,24.50
2022-08-26T23:35:54.147Z,24.45
2022-08-26T23:40:13.735Z,24.41
2022-08-26T23:44:30.991Z,24.42
2022-08-26T23:48:47.620Z,24.49
2022-08-26T23:53:06.331Z,24.42
2022-08-26T23:57:24.261Z,24.37
